createdAt,value
2022-10-05T00:01:28.501Z,98612.63
2022-10-05T00:04:15.516Z,98606.13
2022-10-05T00:06:48.443Z,98616.09
2022-10-05T00:09:21.471Z,98618.94
2022-10-05T00:11:53.849Z,98625.00
2022-10-05T00:14:30.654Z,98613.41
2022-10-05T00:17:07.006Z,98621.97
2022-10-05T00:19:40.647Z,98622.28
2022-10-05T00:22:18.430Z,98624.69
2022-10-05T00:24:49.785Z,98623.72
2022-10-05T00:27:24.718Z,98618.34
2022-10-05T00:30:00.456Z,98619.28
2022-10-05T00:32:33.117Z,98621.81
2022-10-05T00:35:03.155Z,98613.72
2022-10-05T00:37:33.890Z,98618.00
2022-10-05T00:40:04.553Z,98613.25
2022-10-05T00:42:54.407Z,98600.53
2022-10-05T00:45:32.914Z,98604.97
2022-10-05T00:48:23.672Z,98613.84
2022-10-05T00:51:28.510Z,98604.31
2022-10-05T00:54:19.842Z,98598.16
2022-10-05T00:57:25.938Z,98608.09
2022-10-05T01:00:09.218Z,98609.34
2022-10-05T01:02:54.701Z,98610.97
2022-10-05T01:05:49.540Z,98610.06
2022-10-05T01:08:35.670Z,98605.25
2022-10-05T01:11:21.171Z,98603.16
2022-10-05T01:14:04.101Z,98599.19
2022-10-05T01:16:51.179Z,98601.34
2022-10-05T01:20:01.147Z,98603.81
2022-10-05T01:23:01.804Z,98592.28
2022-10-05T01:25:43.982Z,98592.25
2022-10-05T01:28:27.079Z,98594.00
2022-10-05T01:31:12.199Z,98594.00
2022-10-05T01:33:53.093Z,98596.00
2022-10-05T01:36:37.292Z,98585.19
2022-10-05T01:39:19.984Z,98585.13
2022-10-05T01:42:05.095Z,98585.31
2022-10-05T01:44:51.031Z,98586.75
2022-10-05T01:47:34.483Z,98587.31
2022-10-05T01:50:11.411Z,98583.59
2022-10-05T01:52:50.431Z,98589.91
2022-10-05T01:55:33.912Z,98586.44
2022-10-05T01:58:20.442Z,98586.44
2022-10-05T02:01:07.334Z,98588.63
2022-10-05T02:03:46.926Z,98590.53
2022-10-05T02:06:23.729Z,98582.25
2022-10-05T02:09:01.465Z,98575.28
2022-10-05T02:11:32.631Z,98573.66
2022-10-05T02:14:09.560Z,98575.41
2022-10-05T02:16:45.985Z,98569.38
2022-10-05T02:19:24.389Z,98564.19
2022-10-05T02:22:02.068Z,98570.38
2022-10-05T02:24:41.558Z,98576.56
2022-10-05T02:27:17.338Z,98577.22
2022-10-05T02:29:52.218Z,98574.41
2022-10-05T02:32:32.126Z,98570.38
2022-10-05T02:35:05.058Z,98567.03
2022-10-05T02:37:46.570Z,98564.50
2022-10-05T02:40:28.050Z,98557.75
2022-10-05T02:43:14.222Z,98553.69
2022-10-05T02:45:55.431Z,98553.84
2022-10-05T02:48:45.329Z,98542.13
2022-10-05T02:51:25.736Z,98545.28
2022-10-05T02:54:13.676Z,98547.13
2022-10-05T02:56:52.202Z,98545.13
2022-10-05T02:59:33.790Z,98550.94
2022-10-05T03:02:17.678Z,98552.66
2022-10-05T03:05:06.657Z,98563.19
2022-10-05T03:07:46.322Z,98561.88
2022-10-05T03:10:27.327Z,98558.09
2022-10-05T03:13:08.284Z,98568.03
2022-10-05T03:16:10.235Z,98573.34
2022-10-05T03:19:00.735Z,98582.63
2022-10-05T03:21:59.112Z,98572.22
2022-10-05T03:24:55.186Z,98563.00
2022-10-05T03:27:42.248Z,98554.44
2022-10-05T03:30:21.791Z,98556.97
2022-10-05T03:33:09.867Z,98557.56
2022-10-05T03:35:55.886Z,98557.22
2022-10-05T03:38:38.042Z,98548.25
2022-10-05T03:41:19.451Z,98546.16
2022-10-05T03:44:34.454Z,98547.41
2022-10-05T03:47:28.235Z,98545.53
2022-10-05T03:50:32.638Z,98540.56
2022-10-05T03:53:08.984Z,98533.03
2022-10-05T03:55:48.124Z,98536.97
2022-10-05T03:58:26.874Z,98535.47
2022-10-05T04:01:06.931Z,98541.13
2022-10-05T04:03:44.594Z,98536.44
2022-10-05T04:06:22.707Z,98535.28
2022-10-05T04:08:59.461Z,98533.66
2022-10-05T04:11:42.219Z,98526.06
2022-10-05T04:14:18.666Z,98528.38
2022-10-05T04:16:57.814Z,98526.63
2022-10-05T04:19:39.681Z,98525.56
2022-10-05T04:22:18.681Z,98529.88
2022-10-05T04:24:56.124Z,98530.31
2022-10-05T04:27:39.426Z,98526.06
2022-10-05T04:30:16.794Z,98521.06
2022-10-05T04:32:55.019Z,98524.03
2022-10-05T04:35:47.842Z,98519.38
2022-10-05T04:38:40.063Z,98524.50
2022-10-05T04:41:33.635Z,98523.72
2022-10-05T04:44:28.922Z,98522.78
2022-10-05T04:47:29.585Z,98528.72
2022-10-05T04:50:21.517Z,98522.44
2022-10-05T04:53:16.860Z,98526.03
2022-10-05T04:55:59.764Z,98529.28
2022-10-05T04:58:44.954Z,98535.66
2022-10-05T05:01:48.886Z,98536.16
2022-10-05T05:05:01.494Z,98539.06
2022-10-05T05:07:47.601Z,98541.63
2022-10-05T05:11:16.292Z,98547.25
2022-10-05T05:14:47.926Z,98547.56
2022-10-05T05:17:49.501Z,98539.00
2022-10-05T05:20:34.868Z,98548.16
2022-10-05T05:23:13.192Z,98551.84
2022-10-05T05:26:00.031Z,98553.47
2022-10-05T05:28:42.720Z,98554.28
2022-10-05T05:31:25.860Z,98552.72
2022-10-05T05:34:13.673Z,98560.66
2022-10-05T05:36:59.509Z,98569.25
2022-10-05T05:39:34.326Z,98564.06
2022-10-05T05:42:23.948Z,98565.66
2022-10-05T05:45:02.980Z,98576.00
2022-10-05T05:47:38.271Z,98571.97
2022-10-05T05:50:44.639Z,98571.63
2022-10-05T05:53:23.591Z,98579.94
2022-10-05T05:56:04.045Z,98578.91
2022-10-05T05:58:42.357Z,98580.06
2022-10-05T06:01:33.117Z,98584.41
2022-10-05T06:04:13.669Z,98589.56
2022-10-05T06:06:54.178Z,98591.16
2022-10-05T06:09:31.588Z,98598.91
2022-10-05T06:12:17.991Z,98592.88
2022-10-05T06:14:55.699Z,98602.88
2022-10-05T06:17:36.185Z,98608.13
2022-10-05T06:20:19.601Z,98610.56
2022-10-05T06:22:54.805Z,98604.44
2022-10-05T06:25:34.477Z,98618.88
2022-10-05T06:28:13.595Z,98628.00
2022-10-05T06:31:03.388Z,98633.06
2022-10-05T06:33:50.712Z,98633.84
2022-10-05T06:36:43.726Z,98634.28
2022-10-05T06:40:00.776Z,98634.97
2022-10-05T06:42:53.272Z,98638.75
2022-10-05T06:45:59.231Z,98639.81
2022-10-05T06:49:11.564Z,98640.53
2022-10-05T06:52:28.208Z,98639.44
2022-10-05T06:55:19.180Z,98648.72
2022-10-05T06:58:16.372Z,98649.06
2022-10-05T07:00:56.909Z,98654.06
2022-10-05T07:03:41.724Z,98661.38
2022-10-05T07:06:19.183Z,98651.75
2022-10-05T07:09:14.328Z,98657.31
2022-10-05T07:12:07.022Z,98651.91
2022-10-05T07:15:28.290Z,98657.91
2022-10-05T07:18:17.497Z,98651.97
2022-10-05T07:21:01.346Z,98651.81
2022-10-05T07:23:50.753Z,98660.50
2022-10-05T07:26:29.468Z,98652.13
2022-10-05T07:29:26.114Z,98655.25
2022-10-05T07:32:11.281Z,98650.53
2022-10-05T07:34:57.487Z,98655.75
2022-10-05T07:37:53.288Z,98663.25
2022-10-05T07:40:32.392Z,98652.97
2022-10-05T07:43:21.875Z,98658.88
2022-10-05T07:46:04.318Z,98659.19
2022-10-05T07:48:50.479Z,98669.56
2022-10-05T07:51:32.196Z,98672.16
2022-10-05T07:54:17.928Z,98679.91
2022-10-05T07:56:54.189Z,98675.44
2022-10-05T07:59:37.158Z,98668.75
2022-10-05T08:02:24.766Z,98671.75
2022-10-05T08:05:05.319Z,98668.84
2022-10-05T08:07:40.414Z,98671.22
2022-10-05T08:10:34.076Z,98676.28
2022-10-05T08:13:19.669Z,98667.84
2022-10-05T08:15:56.205Z,98660.81
2022-10-05T08:18:52.302Z,98667.09
2022-10-05T08:21:30.341Z,98661.06
2022-10-05T08:24:09.712Z,98662.81
2022-10-05T08:26:52.714Z,98662.56
2022-10-05T08:29:34.045Z,98655.28
2022-10-05T08:32:12.176Z,98660.56
2022-10-05T08:34:56.802Z,98659.09
2022-10-05T08:37:32.309Z,98656.63
2022-10-05T08:40:35.256Z,98646.19
2022-10-05T08:43:40.543Z,98656.41
2022-10-05T08:46:37.991Z,98649.25
2022-10-05T08:49:58.218Z,98637.75
2022-10-05T08:52:31.860Z,98645.63
2022-10-05T08:55:40.623Z,98645.88
2022-10-05T08:59:13.253Z,98638.78
2022-10-05T09:02:16.903Z,98645.69
2022-10-05T09:05:12.226Z,98632.59
2022-10-05T09:08:24.897Z,98636.25
2022-10-05T09:11:15.864Z,98638.84
2022-10-05T09:14:09.584Z,98633.34
2022-10-05T09:16:53.124Z,98634.22
2022-10-05T09:20:20.044Z,98619.72
2022-10-05T09:23:01.868Z,98631.19
2022-10-05T09:25:45.278Z,98620.97
2022-10-05T09:28:35.153Z,98621.41
2022-10-05T09:31:43.848Z,98617.69
2022-10-05T09:34:50.022Z,98616.09
2022-10-05T09:37:47.075Z,98619.16
2022-10-05T09:41:00.287Z,98604.00
2022-10-05T09:44:14.305Z,98613.19
2022-10-05T09:47:15.768Z,98609.31
2022-10-05T09:50:30.621Z,98606.41
2022-10-05T09:53:30.497Z,98597.06
2022-10-05T10:03:59.473Z,98589.13
2022-10-05T10:07:13.911Z,98583.75
2022-10-05T10:10:03.507Z,98574.38
2022-10-05T10:12:57.070Z,98569.34
2022-10-05T10:16:06.450Z,98565.50
2022-10-05T10:19:15.367Z,98560.94
2022-10-05T10:22:21.555Z,98560.22
2022-10-05T10:25:22.981Z,98555.88
2022-10-05T10:28:22.529Z,98552.78
2022-10-05T10:31:40.593Z,98547.06
2022-10-05T10:35:14.737Z,98551.09
2022-10-05T10:38:38.310Z,98548.66
2022-10-05T10:41:36.717Z,98545.00
2022-10-05T10:44:47.216Z,98545.69
2022-10-05T10:47:53.599Z,98544.94
2022-10-05T10:51:13.969Z,98531.13
2022-10-05T10:54:30.805Z,98531.44
2022-10-05T10:57:10.140Z,98522.72
2022-10-05T11:00:08.918Z,98524.41
2022-10-05T11:03:17.921Z,98514.69
2022-10-05T11:06:29.618Z,98509.63
2022-10-05T11:09:27.729Z,98509.19
2022-10-05T11:12:51.540Z,98502.66
2022-10-05T11:16:03.396Z,98498.00
2022-10-05T11:18:54.981Z,98501.91
2022-10-05T11:21:36.799Z,98496.13
2022-10-05T11:24:55.061Z,98491.16
2022-10-05T11:28:02.087Z,98484.72
2022-10-05T11:31:15.241Z,98482.16
2022-10-05T11:34:23.175Z,98481.78
2022-10-05T11:37:27.046Z,98471.84
2022-10-05T11:40:28.544Z,98470.97
2022-10-05T11:43:29.115Z,98473.50
2022-10-05T11:46:13.847Z,98465.06
2022-10-05T11:49:07.032Z,98468.94
2022-10-05T11:51:53.872Z,98459.47
2022-10-05T11:55:16.184Z,98458.09
2022-10-05T11:57:56.029Z,98452.84
2022-10-05T12:00:31.975Z,98451.59
2022-10-05T12:03:44.423Z,98447.06
2022-10-05T12:06:29.224Z,98446.31
2022-10-05T12:09:19.994Z,98444.28
2022-10-05T12:12:09.225Z,98439.75
2022-10-05T12:14:55.397Z,98440.44
2022-10-05T12:17:37.063Z,98438.34
2022-10-05T12:20:15.837Z,98434.19
2022-10-05T12:22:55.382Z,98438.25
2022-10-05T12:25:36.966Z,98430.09
2022-10-05T12:28:16.219Z,98429.13
2022-10-05T12:31:11.877Z,98426.72
2022-10-05T12:33:48.994Z,98420.84
2022-10-05T12:36:46.302Z,98419.91
2022-10-05T12:39:33.522Z,98417.03
2022-10-05T12:42:22.688Z,98417.72
2022-10-05T12:45:17.708Z,98410.63
2022-10-05T12:48:18.946Z,98412.06
2022-10-05T12:50:52.831Z,98410.41
2022-10-05T12:53:48.405Z,98409.19
2022-10-05T12:56:39.622Z,98409.66
2022-10-05T12:59:25.960Z,98415.50
2022-10-05T13:02:09.065Z,98404.56
2022-10-05T13:04:51.489Z,98403.75
2022-10-05T13:08:00.145Z,98408.19
2022-10-05T13:10:40.364Z,98406.88
2022-10-05T13:13:35.731Z,98402.22
2022-10-05T13:16:22.443Z,98393.47
2022-10-05T13:19:16.093Z,98386.84
2022-10-05T13:22:07.205Z,98396.78
2022-10-05T13:24:52.463Z,98402.19
2022-10-05T13:27:30.538Z,98390.38
2022-10-05T13:30:08.468Z,98391.06
2022-10-05T13:32:44.488Z,98399.28
2022-10-05T13:35:40.485Z,98393.88
2022-10-05T13:38:30.264Z,98401.38
2022-10-05T13:41:19.454Z,98392.25
2022-10-05T13:44:04.819Z,98396.28
2022-10-05T13:46:44.889Z,98393.44
2022-10-05T13:49:26.608Z,98385.38
2022-10-05T13:52:14.404Z,98396.31
2022-10-05T13:54:58.297Z,98388.50
2022-10-05T13:57:45.293Z,98387.44
2022-10-05T14:00:25.696Z,98385.88
2022-10-05T14:02:59.447Z,98384.38
2022-10-05T14:05:32.355Z,98384.63
2022-10-05T14:08:21.637Z,98382.84
2022-10-05T14:10:53.815Z,98374.03
2022-10-05T14:13:29.313Z,98380.41
2022-10-05T14:16:16.703Z,98378.25
2022-10-05T14:18:57.881Z,98384.31
2022-10-05T14:21:32.539Z,98388.75
2022-10-05T14:24:50.224Z,98382.56
2022-10-05T14:27:27.528Z,98380.19
2022-10-05T14:30:05.362Z,98383.09
2022-10-05T14:32:46.273Z,98375.31
2022-10-05T14:35:22.241Z,98379.19
2022-10-05T14:38:02.255Z,98380.72
2022-10-05T14:40:38.068Z,98371.63
2022-10-05T14:43:22.968Z,98381.75
2022-10-05T14:45:58.880Z,98374.25
2022-10-05T14:48:31.467Z,98375.28
2022-10-05T14:51:04.216Z,98369.03
2022-10-05T14:53:43.594Z,98371.63
2022-10-05T14:56:48.232Z,98373.97
2022-10-05T15:00:02.764Z,98367.97
2022-10-05T15:03:18.130Z,98362.31
2022-10-05T15:05:53.099Z,98372.69
2022-10-05T15:08:45.411Z,98363.63
2022-10-05T15:11:32.716Z,98360.78
2022-10-05T15:14:04.871Z,98361.28
2022-10-05T15:16:41.096Z,98366.50
2022-10-05T15:19:22.631Z,98365.50
2022-10-05T15:22:21.515Z,98364.94
2022-10-05T15:25:12.360Z,98355.59
2022-10-05T15:28:09.544Z,98366.50
2022-10-05T15:30:49.938Z,98363.16
2022-10-05T15:33:33.252Z,98372.00
2022-10-05T15:36:21.090Z,98359.53
2022-10-05T15:39:06.508Z,98359.53
2022-10-05T15:41:58.887Z,98365.47
2022-10-05T15:44:52.254Z,98366.00
2022-10-05T15:47:28.333Z,98366.00
2022-10-05T15:50:15.225Z,98368.53
2022-10-05T15:52:54.132Z,98374.72
2022-10-05T15:55:46.832Z,98375.50
2022-10-05T15:58:47.837Z,98377.03
2022-10-05T16:01:41.835Z,98378.31
2022-10-05T16:04:23.626Z,98383.50
2022-10-05T16:07:26.027Z,98380.84
2022-10-05T16:10:12.370Z,98390.63
2022-10-05T16:13:00.792Z,98386.69
2022-10-05T16:15:40.665Z,98396.19
2022-10-05T16:18:49.966Z,98395.84
2022-10-05T16:21:32.778Z,98397.91
2022-10-05T16:24:21.426Z,98397.53
2022-10-05T16:27:02.421Z,98402.63
2022-10-05T16:29:48.281Z,98404.72
2022-10-05T16:32:25.070Z,98403.97
2022-10-05T16:35:18.384Z,98407.56
2022-10-05T16:38:07.588Z,98410.50
2022-10-05T16:40:50.718Z,98407.94
2022-10-05T16:43:40.126Z,98414.94
2022-10-05T16:46:22.303Z,98420.09
2022-10-05T16:49:06.182Z,98423.31
2022-10-05T16:51:55.939Z,98428.16
2022-10-05T16:54:32.416Z,98427.94
2022-10-05T16:57:12.304Z,98431.84
2022-10-05T17:00:14.855Z,98440.00
2022-10-05T17:03:03.814Z,98443.63
2022-10-05T17:06:06.073Z,98442.44
2022-10-05T17:09:11.831Z,98447.44
2022-10-05T17:12:04.229Z,98456.16
2022-10-05T17:14:52.865Z,98459.41
2022-10-05T17:18:00.401Z,98446.22
2022-10-05T17:20:47.050Z,98457.88
2022-10-05T17:23:34.293Z,98464.78
2022-10-05T17:26:57.899Z,98465.34
2022-10-05T17:29:49.931Z,98473.72
2022-10-05T17:32:42.517Z,98477.84
2022-10-05T17:35:22.357Z,98471.44
2022-10-05T17:38:22.187Z,98469.56
2022-10-05T17:41:26.250Z,98477.31
2022-10-05T17:44:30.797Z,98476.38
2022-10-05T17:47:04.078Z,98483.38
2022-10-05T17:50:11.875Z,98482.63
2022-10-05T17:52:57.714Z,98480.63
2022-10-05T17:56:05.652Z,98479.59
2022-10-05T17:59:07.961Z,98482.31
2022-10-05T18:01:42.998Z,98481.41
2022-10-05T18:04:42.513Z,98482.03
2022-10-05T18:07:25.616Z,98491.06
2022-10-05T18:10:28.713Z,98497.19
2022-10-05T18:13:34.670Z,98492.56
2022-10-05T18:16:04.890Z,98503.22
2022-10-05T18:19:01.404Z,98500.63
2022-10-05T18:21:43.190Z,98504.66
2022-10-05T18:24:56.171Z,98518.00
2022-10-05T18:28:06.203Z,98516.53
2022-10-05T18:30:57.951Z,98524.38
2022-10-05T18:33:59.684Z,98531.22
2022-10-05T18:37:07.118Z,98534.66
2022-10-05T18:39:59.258Z,98542.63
2022-10-05T18:42:40.721Z,98545.16
2022-10-05T18:45:27.157Z,98547.72
2022-10-05T18:48:17.380Z,98550.59
2022-10-05T18:50:56.579Z,98544.66
2022-10-05T18:53:45.129Z,98543.19
2022-10-05T18:56:28.693Z,98548.78
2022-10-05T18:59:24.098Z,98547.03
2022-10-05T19:02:13.743Z,98552.59
2022-10-05T19:05:02.335Z,98557.56
2022-10-05T19:07:46.789Z,98565.47
2022-10-05T19:10:31.685Z,98563.09
2022-10-05T19:13:25.159Z,98570.78
2022-10-05T19:16:13.420Z,98565.50
2022-10-05T19:19:05.008Z,98569.84
2022-10-05T19:21:47.187Z,98566.69
2022-10-05T19:24:48.163Z,98575.75
2022-10-05T19:27:37.481Z,98580.09
2022-10-05T19:30:23.229Z,98582.47
2022-10-05T19:33:16.361Z,98585.00
2022-10-05T19:36:07.432Z,98588.19
2022-10-05T19:38:47.757Z,98590.31
2022-10-05T19:41:26.273Z,98603.28
2022-10-05T19:44:19.471Z,98604.06
2022-10-05T19:47:03.128Z,98612.34
2022-10-05T19:49:45.819Z,98618.06
2022-10-05T19:52:24.545Z,98623.09
2022-10-05T19:55:17.840Z,98635.06
2022-10-05T19:57:52.541Z,98635.66
2022-10-05T20:00:31.985Z,98645.44
2022-10-05T20:03:14.954Z,98659.38
2022-10-05T20:05:45.437Z,98657.59
2022-10-05T20:08:20.402Z,98658.22
2022-10-05T20:11:11.338Z,98668.34
2022-10-05T20:13:42.736Z,98672.56
2022-10-05T20:16:45.924Z,98678.47
2022-10-05T20:19:51.706Z,98686.28
2022-10-05T20:22:35.509Z,98681.91
2022-10-05T20:25:09.148Z,98682.50
2022-10-05T20:27:47.585Z,98690.28
2022-10-05T20:30:21.588Z,98702.00
2022-10-05T20:32:57.641Z,98697.00
2022-10-05T20:35:30.826Z,98704.56
2022-10-05T20:38:02.012Z,98706.50
2022-10-05T20:40:33.225Z,98714.03
2022-10-05T20:43:03.191Z,98714.03
2022-10-05T20:45:33.183Z,98719.16
2022-10-05T20:48:05.931Z,98718.78
2022-10-05T20:50:37.346Z,98718.66
2022-10-05T20:53:11.704Z,98724.34
2022-10-05T20:55:43.201Z,98729.97
2022-10-05T20:58:13.268Z,98737.88
2022-10-05T21:00:55.831Z,98733.13
2022-10-05T21:03:28.566Z,98733.94
2022-10-05T21:05:59.267Z,98742.91
2022-10-05T21:08:29.741Z,98747.38
2022-10-05T21:11:00.116Z,98750.59
2022-10-05T21:13:30.169Z,98752.84
2022-10-05T21:16:00.216Z,98756.38
2022-10-05T21:18:33.569Z,98762.19
2022-10-05T21:21:03.687Z,98765.59
2022-10-05T21:23:34.014Z,98772.56
2022-10-05T21:26:04.733Z,98774.28
2022-10-05T21:28:34.789Z,98772.09
2022-10-05T21:31:04.840Z,98770.69
2022-10-05T21:33:38.517Z,98773.44
2022-10-05T21:36:08.647Z,98767.72
2022-10-05T21:38:38.713Z,98779.50
2022-10-05T21:41:09.245Z,98786.56
2022-10-05T21:43:39.537Z,98790.47
2022-10-05T21:46:10.451Z,98800.84
2022-10-05T21:48:44.090Z,98793.56
2022-10-05T21:51:19.389Z,98790.81
2022-10-05T21:53:54.045Z,98796.31
2022-10-05T21:56:30.669Z,98803.97
2022-10-05T21:59:01.781Z,98810.72
2022-10-05T22:01:31.899Z,98799.63
2022-10-05T22:04:04.597Z,98803.94
2022-10-05T22:06:35.278Z,98803.88
2022-10-05T22:09:06.709Z,98804.59
2022-10-05T22:11:37.319Z,98808.88
2022-10-05T22:14:07.791Z,98815.16
2022-10-05T22:16:41.339Z,98815.50
2022-10-05T22:19:21.541Z,98824.13
2022-10-05T22:21:51.565Z,98825.03
2022-10-05T22:24:21.752Z,98821.31
2022-10-05T22:26:53.343Z,98818.56
2022-10-05T22:29:24.704Z,98824.13
2022-10-05T22:31:57.528Z,98825.88
2022-10-05T22:34:30.217Z,98823.44
2022-10-05T22:37:01.672Z,98834.25
2022-10-05T22:39:31.708Z,98833.88
2022-10-05T22:42:01.829Z,98835.38
2022-10-05T22:44:31.890Z,98834.31
2022-10-05T22:47:02.200Z,98833.44
2022-10-05T22:49:34.936Z,98838.81
2022-10-05T22:52:04.929Z,98835.84
2022-10-05T22:54:37.327Z,98834.69
2022-10-05T22:57:07.547Z,98836.00
2022-10-05T22:59:37.517Z,98831.25
2022-10-05T23:02:07.600Z,98833.81
2022-10-05T23:04:40.228Z,98834.69
2022-10-05T23:07:10.285Z,98835.03
2022-10-05T23:09:40.377Z,98846.84
2022-10-05T23:12:10.356Z,98845.94
2022-10-05T23:14:41.649Z,98845.22
2022-10-05T23:17:11.710Z,98846.47
2022-10-05T23:19:44.274Z,98851.50
2022-10-05T23:22:14.251Z,98850.34
2022-10-05T23:24:44.271Z,98850.69
2022-10-05T23:27:14.315Z,98851.38
2022-10-05T23:29:44.354Z,98853.31
2022-10-05T23:32:14.342Z,98849.34
2022-10-05T23:34:47.067Z,98848.22
2022-10-05T23:37:19.195Z,98850.47
2022-10-05T23:39:49.283Z,98854.97
2022-10-05T23:42:19.612Z,98854.00
2022-10-05T23:44:49.706Z,98859.81
2022-10-05T23:47:19.760Z,98864.44
2022-10-05T23:49:52.439Z,98867.25
2022-10-05T23:52:22.481Z,98863.31
2022-10-05T23:54:52.533Z,98877.66
2022-10-05T23:57:23.137Z,98875.78
2022-10-05T23:59:53.154Z,98877.03
